createdAt,value
2023-05-21T00:00:53.844Z,102299.38
2023-05-21T00:03:21.980Z,102301.38
2023-05-21T00:05:50.157Z,102290.47
2023-05-21T00:08:18.049Z,102303.34
2023-05-21T00:10:45.706Z,102288.31
2023-05-21T00:13:14.706Z,102292.84
2023-05-21T00:15:42.407Z,102293.34
2023-05-21T00:18:10.193Z,102284.13
2023-05-21T00:20:38.319Z,102276.44
2023-05-21T00:23:06.156Z,102283.97
2023-05-21T00:25:33.910Z,102283.78
2023-05-21T00:28:01.761Z,102277.63
2023-05-21T00:30:30.808Z,102272.75
2023-05-21T00:33:02.857Z,102269.75
2023-05-21T00:35:31.239Z,102268.28
2023-05-21T00:38:00.153Z,102263.06
2023-05-21T00:40:27.792Z,102262.59
2023-05-21T00:42:57.127Z,102255.03
2023-05-21T00:45:25.506Z,102252.25
2023-05-21T00:47:56.201Z,102245.03
2023-05-21T00:50:24.381Z,102250.22
2023-05-21T00:52:52.123Z,102243.19
2023-05-21T00:55:19.842Z,102258.75
2023-05-21T00:57:47.637Z,102256.56
2023-05-21T01:00:16.364Z,102244.50
2023-05-21T01:02:44.910Z,102245.66
2023-05-21T01:05:15.538Z,102247.16
2023-05-21T01:07:43.445Z,102243.00
2023-05-21T01:10:12.450Z,102246.50
2023-05-21T01:12:43.228Z,102238.50
2023-05-21T01:15:12.021Z,102234.00
2023-05-21T01:17:40.182Z,102232.31
2023-05-21T01:20:11.163Z,102238.66
2023-05-21T01:22:44.948Z,102243.53
2023-05-21T01:25:15.056Z,102233.16
2023-05-21T01:27:42.727Z,102227.16
2023-05-21T01:30:11.474Z,102237.34
2023-05-21T01:32:46.247Z,102226.16
2023-05-21T01:35:18.772Z,102218.47
2023-05-21T01:37:52.519Z,102214.13
2023-05-21T01:40:26.934Z,102217.00
2023-05-21T01:42:54.681Z,102210.63
2023-05-21T01:45:24.951Z,102215.31
2023-05-21T01:47:55.565Z,102218.00
2023-05-21T01:50:24.734Z,102209.28
2023-05-21T01:52:54.019Z,102213.66
2023-05-21T01:55:24.674Z,102212.16
2023-05-21T01:57:53.647Z,102216.50
2023-05-21T02:00:22.313Z,102201.13
2023-05-21T02:02:50.935Z,102211.28
2023-05-21T02:05:18.889Z,102197.28
2023-05-21T02:07:47.280Z,102208.31
2023-05-21T02:10:15.771Z,102199.09
2023-05-21T02:12:44.825Z,102201.28
2023-05-21T02:15:14.279Z,102201.13
2023-05-21T02:17:42.413Z,102205.28
2023-05-21T02:20:12.117Z,102197.78
2023-05-21T02:22:40.359Z,102196.94
2023-05-21T02:25:09.928Z,102198.44
2023-05-21T02:27:38.268Z,102182.38
2023-05-21T02:30:09.402Z,102190.59
2023-05-21T02:32:37.108Z,102186.25
2023-05-21T02:35:05.835Z,102189.56
2023-05-21T02:37:34.198Z,102188.75
2023-05-21T02:40:03.620Z,102194.56
2023-05-21T02:42:31.676Z,102187.06
2023-05-21T02:44:59.280Z,102195.94
2023-05-21T02:47:28.290Z,102185.41
2023-05-21T02:49:55.979Z,102190.44
2023-05-21T02:52:24.046Z,102179.09
2023-05-21T02:54:52.627Z,102185.44
2023-05-21T02:57:20.501Z,102181.56
2023-05-21T02:59:48.196Z,102175.56
2023-05-21T03:02:16.201Z,102178.25
2023-05-21T03:04:46.914Z,102171.88
2023-05-21T03:07:15.122Z,102168.84
2023-05-21T03:09:43.076Z,102177.22
2023-05-21T03:12:11.248Z,102182.56
2023-05-21T03:14:39.229Z,102170.03
2023-05-21T03:17:07.154Z,102170.88
2023-05-21T03:19:35.980Z,102158.34
2023-05-21T03:22:05.296Z,102166.88
2023-05-21T03:24:33.368Z,102166.03
2023-05-21T03:27:01.995Z,102162.69
2023-05-21T03:29:29.855Z,102167.53
2023-05-21T03:31:58.147Z,102158.66
2023-05-21T03:34:25.917Z,102150.47
2023-05-21T03:36:53.641Z,102142.75
2023-05-21T03:39:22.637Z,102150.63
2023-05-21T03:41:50.285Z,102154.63
2023-05-21T03:44:18.021Z,102150.75
2023-05-21T03:46:46.051Z,102155.56
2023-05-21T03:49:15.252Z,102151.56
2023-05-21T03:51:42.982Z,102154.03
2023-05-21T03:54:10.768Z,102151.38
2023-05-21T03:56:39.765Z,102149.69
2023-05-21T03:59:07.394Z,102153.00
2023-05-21T04:01:35.073Z,102153.78
2023-05-21T04:04:03.150Z,102149.63
2023-05-21T04:06:31.178Z,102147.41
2023-05-21T04:08:58.823Z,102146.59
2023-05-21T04:11:26.439Z,102149.28
2023-05-21T04:13:55.743Z,102143.09
2023-05-21T04:16:24.623Z,102143.19
2023-05-21T04:18:55.330Z,102136.06
2023-05-21T04:21:23.029Z,102143.66
2023-05-21T04:23:50.644Z,102146.34
2023-05-21T04:26:18.243Z,102145.44
2023-05-21T04:28:45.938Z,102142.19
2023-05-21T04:31:15.192Z,102152.28
2023-05-21T04:33:45.830Z,102146.06
2023-05-21T04:36:13.541Z,102154.59
2023-05-21T04:38:41.942Z,102152.53
2023-05-21T04:41:10.796Z,102150.09
2023-05-21T04:43:38.424Z,102153.22
2023-05-21T04:46:06.394Z,102140.69
2023-05-21T04:48:35.502Z,102143.69
2023-05-21T04:51:05.768Z,102135.22
2023-05-21T04:53:33.976Z,102129.50
2023-05-21T04:56:03.129Z,102130.31
2023-05-21T04:58:32.900Z,102121.06
2023-05-21T05:01:03.180Z,102115.56
2023-05-21T05:03:31.432Z,102115.53
2023-05-21T05:06:01.405Z,102110.44
2023-05-21T05:08:29.086Z,102120.41
2023-05-21T05:10:56.852Z,102101.75
2023-05-21T05:13:24.709Z,102113.34
2023-05-21T05:15:54.762Z,102118.91
2023-05-21T05:18:22.597Z,102105.25
2023-05-21T05:20:50.377Z,102112.13
2023-05-21T05:23:19.356Z,102106.38
2023-05-21T05:25:47.003Z,102106.13
2023-05-21T05:28:14.607Z,102124.47
2023-05-21T05:30:42.263Z,102114.72
2023-05-21T05:33:09.921Z,102126.91
2023-05-21T05:35:37.919Z,102125.06
2023-05-21T05:38:05.884Z,102121.47
2023-05-21T05:40:34.949Z,102123.31
2023-05-21T05:43:02.569Z,102125.94
2023-05-21T05:45:31.252Z,102127.63
2023-05-21T05:47:59.497Z,102120.13
2023-05-21T05:50:27.121Z,102120.22
2023-05-21T05:52:54.787Z,102120.44
2023-05-21T05:55:25.090Z,102124.50
2023-05-21T05:57:54.237Z,102114.75
2023-05-21T06:00:22.235Z,102105.34
2023-05-21T06:02:50.018Z,102101.22
2023-05-21T06:05:17.837Z,102096.19
2023-05-21T06:07:45.627Z,102103.72
2023-05-21T06:10:13.297Z,102099.34
2023-05-21T06:12:40.961Z,102106.97
2023-05-21T06:15:11.020Z,102110.44
2023-05-21T06:17:38.712Z,102112.03
2023-05-21T06:20:09.944Z,102118.59
2023-05-21T06:22:38.048Z,102113.91
2023-05-21T06:25:07.021Z,102121.03
2023-05-21T06:27:34.681Z,102118.94
2023-05-21T06:30:02.325Z,102100.47
2023-05-21T06:32:31.470Z,102114.19
2023-05-21T06:34:59.159Z,102115.44
2023-05-21T06:37:26.934Z,102116.25
2023-05-21T06:39:54.540Z,102110.63
2023-05-21T06:42:22.168Z,102116.72
2023-05-21T06:44:49.852Z,102114.78
2023-05-21T06:47:17.645Z,102110.88
2023-05-21T06:49:46.704Z,102121.66
2023-05-21T06:52:14.509Z,102130.78
2023-05-21T06:54:42.418Z,102127.84
2023-05-21T06:57:10.269Z,102134.91
2023-05-21T06:59:37.882Z,102130.75
2023-05-21T07:02:05.828Z,102128.44
2023-05-21T07:04:35.208Z,102124.78
2023-05-21T07:07:04.846Z,102126.19
2023-05-21T07:09:32.657Z,102118.19
2023-05-21T07:12:01.172Z,102124.50
2023-05-21T07:14:28.784Z,102129.56
2023-05-21T07:16:56.510Z,102123.06
2023-05-21T07:19:24.236Z,102127.22
2023-05-21T07:21:51.973Z,102127.03
2023-05-21T07:24:21.256Z,102130.69
2023-05-21T07:26:49.036Z,102125.25
2023-05-21T07:29:16.782Z,102134.84
2023-05-21T07:31:44.513Z,102128.31
2023-05-21T07:34:12.375Z,102126.22
2023-05-21T07:36:40.024Z,102141.56
2023-05-21T07:39:07.681Z,102134.72
2023-05-21T07:41:36.679Z,102137.44
2023-05-21T07:44:04.501Z,102130.16
2023-05-21T07:46:32.180Z,102122.09
2023-05-21T07:48:59.908Z,102128.09
2023-05-21T07:51:28.177Z,102126.84
2023-05-21T07:53:56.223Z,102118.16
2023-05-21T07:56:23.895Z,102123.31
2023-05-21T07:58:53.930Z,102124.78
2023-05-21T08:01:22.432Z,102122.28
2023-05-21T08:03:50.456Z,102118.97
2023-05-21T08:06:18.626Z,102115.44
2023-05-21T08:08:46.807Z,102118.13
2023-05-21T08:11:14.596Z,102121.88
2023-05-21T08:13:42.340Z,102111.72
2023-05-21T08:16:11.429Z,102114.00
2023-05-21T08:18:39.073Z,102125.19
2023-05-21T08:21:07.159Z,102116.25
2023-05-21T08:23:34.838Z,102108.34
2023-05-21T08:26:02.535Z,102114.56
2023-05-21T08:28:31.930Z,102124.97
2023-05-21T08:30:59.526Z,102125.94
2023-05-21T08:33:28.634Z,102126.41
2023-05-21T08:35:56.286Z,102131.53
2023-05-21T08:38:24.022Z,102129.81
2023-05-21T08:40:54.473Z,102129.41
2023-05-21T08:43:22.461Z,102138.13
2023-05-21T08:45:56.468Z,102133.81
2023-05-21T08:48:25.025Z,102124.88
2023-05-21T08:50:55.746Z,102118.19
2023-05-21T08:53:28.625Z,102107.84
2023-05-21T08:55:57.659Z,102105.09
2023-05-21T08:58:25.531Z,102123.34
2023-05-21T09:00:53.260Z,102104.84
2023-05-21T09:03:22.541Z,102101.28
2023-05-21T09:05:51.138Z,102109.81
2023-05-21T09:08:24.058Z,102108.22
2023-05-21T09:10:53.927Z,102106.81
2023-05-21T09:13:22.396Z,102099.53
2023-05-21T09:15:51.399Z,102107.38
2023-05-21T09:18:19.293Z,102104.53
2023-05-21T09:20:46.924Z,102100.72
2023-05-21T09:23:20.145Z,102101.81
2023-05-21T09:25:49.246Z,102102.34
2023-05-21T09:28:18.288Z,102092.91
2023-05-21T09:30:47.718Z,102100.56
2023-05-21T09:33:26.135Z,102093.81
2023-05-21T09:35:54.065Z,102077.19
2023-05-21T09:38:24.635Z,102082.16
2023-05-21T09:40:52.302Z,102088.59
2023-05-21T09:43:22.559Z,102080.88
2023-05-21T09:45:54.017Z,102082.94
2023-05-21T09:48:36.748Z,102087.00
2023-05-21T09:51:12.677Z,102083.38
2023-05-21T09:53:51.873Z,102081.31
2023-05-21T09:56:24.760Z,102087.97
2023-05-21T09:58:54.751Z,102087.03
2023-05-21T10:01:22.540Z,102079.50
2023-05-21T10:03:56.136Z,102082.94
2023-05-21T10:06:27.269Z,102084.19
2023-05-21T10:08:57.763Z,102075.94
2023-05-21T10:11:28.303Z,102069.53
2023-05-21T10:13:59.267Z,102086.66
2023-05-21T10:16:26.907Z,102092.16
2023-05-21T10:18:57.586Z,102070.59
2023-05-21T10:21:26.132Z,102060.88
2023-05-21T10:23:57.199Z,102067.66
2023-05-21T10:26:25.531Z,102067.72
2023-05-21T10:28:53.332Z,102073.78
2023-05-21T10:31:21.126Z,102052.72
2023-05-21T10:33:49.918Z,102053.69
2023-05-21T10:36:18.363Z,102048.72
2023-05-21T10:38:46.537Z,102044.88
2023-05-21T10:41:17.181Z,102059.22
2023-05-21T10:44:02.561Z,102050.13
2023-05-21T10:46:59.840Z,102060.34
2023-05-21T10:49:42.965Z,102038.13
2023-05-21T10:52:24.525Z,102046.50
2023-05-21T10:55:08.705Z,102041.47
2023-05-21T10:57:54.979Z,102045.72
2023-05-21T11:00:23.092Z,102041.03
2023-05-21T11:02:52.076Z,102047.97
2023-05-21T11:05:39.476Z,102039.09
2023-05-21T11:08:19.448Z,102037.16
2023-05-21T11:10:52.860Z,102038.50
2023-05-21T11:13:22.668Z,102030.06
2023-05-21T11:16:14.715Z,102034.19
2023-05-21T11:19:01.565Z,102045.16
2023-05-21T11:21:35.128Z,102043.25
2023-05-21T11:24:08.333Z,102037.94
2023-05-21T11:27:04.353Z,102031.38
2023-05-21T11:29:44.641Z,102028.88
2023-05-21T11:32:15.167Z,102025.59
2023-05-21T11:34:49.570Z,102028.88
2023-05-21T11:37:27.568Z,102034.59
2023-05-21T11:39:55.833Z,102038.97
2023-05-21T11:42:34.296Z,102034.31
2023-05-21T11:45:04.650Z,102037.16
2023-05-21T11:47:33.278Z,102034.91
2023-05-21T11:50:02.473Z,102028.53
2023-05-21T11:52:31.710Z,102024.53
2023-05-21T11:54:59.931Z,102034.31
2023-05-21T11:57:30.804Z,102038.34
2023-05-21T12:00:00.250Z,102021.81
2023-05-21T12:02:33.408Z,102026.53
2023-05-21T12:05:01.149Z,102027.13
2023-05-21T12:07:31.392Z,102024.19
2023-05-21T12:09:59.984Z,102014.28
2023-05-21T12:12:35.582Z,102012.28
2023-05-21T12:15:12.443Z,102024.63
2023-05-21T12:17:42.127Z,102006.50
2023-05-21T12:20:10.856Z,102015.31
2023-05-21T12:22:43.293Z,102018.50
2023-05-21T12:25:12.004Z,101994.84
2023-05-21T12:27:42.007Z,102026.34
2023-05-21T12:30:10.922Z,102008.00
2023-05-21T12:32:44.770Z,102022.00
2023-05-21T12:35:22.520Z,102018.50
2023-05-21T12:37:51.555Z,102015.75
2023-05-21T12:40:20.681Z,102012.13
2023-05-21T12:42:48.442Z,102012.56
2023-05-21T12:45:18.342Z,102007.81
2023-05-21T12:47:55.842Z,102025.31
2023-05-21T12:50:23.943Z,102011.97
2023-05-21T12:52:55.438Z,102014.78
2023-05-21T12:55:24.205Z,102006.28
2023-05-21T12:57:52.268Z,101979.69
2023-05-21T13:00:25.297Z,101985.75
2023-05-21T13:02:55.795Z,101997.34
2023-05-21T13:05:23.478Z,101993.53
2023-05-21T13:07:51.640Z,101986.22
2023-05-21T13:10:19.762Z,101982.94
2023-05-21T13:12:47.560Z,101986.03
2023-05-21T13:15:15.718Z,101991.09
2023-05-21T13:17:43.471Z,102006.19
2023-05-21T13:20:13.657Z,101984.59
2023-05-21T13:22:43.337Z,101984.63
2023-05-21T13:25:12.233Z,101971.06
2023-05-21T13:27:40.472Z,101980.53
2023-05-21T13:30:09.535Z,101971.91
2023-05-21T13:32:37.480Z,101978.84
2023-05-21T13:35:05.921Z,101982.16
2023-05-21T13:37:36.765Z,101974.03
2023-05-21T13:40:05.794Z,101973.78
2023-05-21T13:42:33.714Z,101976.25
2023-05-21T13:45:01.422Z,101967.44
2023-05-21T13:47:29.104Z,101968.72
2023-05-21T13:49:56.794Z,101959.50
2023-05-21T13:52:24.465Z,101985.44
2023-05-21T13:54:53.461Z,101971.53
2023-05-21T13:57:21.543Z,101970.56
2023-05-21T13:59:50.582Z,101966.97
2023-05-21T14:02:18.305Z,101965.91
2023-05-21T14:04:46.009Z,101964.03
2023-05-21T14:07:13.698Z,101962.13
2023-05-21T14:09:42.207Z,101953.75
2023-05-21T14:12:11.824Z,101968.16
2023-05-21T14:14:39.449Z,101963.31
2023-05-21T14:17:07.066Z,101976.75
2023-05-21T14:19:34.801Z,101977.34
2023-05-21T14:22:02.485Z,101973.78
2023-05-21T14:24:30.135Z,101970.63
2023-05-21T14:26:57.821Z,101969.16
2023-05-21T14:29:26.795Z,101972.81
2023-05-21T14:31:54.543Z,101957.31
2023-05-21T14:34:22.180Z,101961.44
2023-05-21T14:36:49.842Z,101963.47
2023-05-21T14:39:17.718Z,101958.34
2023-05-21T14:41:45.342Z,101964.97
2023-05-21T14:44:12.968Z,101970.94
2023-05-21T14:46:42.276Z,101976.16
2023-05-21T14:49:11.829Z,101967.66
2023-05-21T14:51:39.452Z,101975.75
2023-05-21T14:54:07.109Z,101975.06
2023-05-21T14:56:34.788Z,101966.22
2023-05-21T14:59:02.364Z,101968.00
2023-05-21T15:01:30.115Z,101979.91
2023-05-21T15:03:59.681Z,101983.16
2023-05-21T15:06:27.902Z,101979.03
2023-05-21T15:08:55.656Z,101981.97
2023-05-21T15:11:23.753Z,101983.28
2023-05-21T15:13:51.314Z,101974.69
2023-05-21T15:16:19.857Z,101971.06
2023-05-21T15:18:47.756Z,101962.75
2023-05-21T15:21:16.783Z,101962.88
2023-05-21T15:23:44.392Z,101961.34
2023-05-21T15:26:12.093Z,101965.03
2023-05-21T15:28:39.689Z,101956.78
2023-05-21T15:31:07.346Z,101955.94
2023-05-21T15:33:34.958Z,101950.31
2023-05-21T15:36:02.622Z,101945.53
2023-05-21T15:38:32.678Z,101944.88
2023-05-21T15:41:00.282Z,101945.38
2023-05-21T15:43:27.904Z,101933.66
2023-05-21T15:45:55.570Z,101927.03
2023-05-21T15:48:23.309Z,101952.69
2023-05-21T15:50:50.955Z,101938.63
2023-05-21T15:53:18.617Z,101937.56
2023-05-21T15:55:47.614Z,101940.84
2023-05-21T15:58:15.276Z,101953.28
2023-05-21T16:00:43.006Z,101935.28
2023-05-21T16:03:11.898Z,101931.63
2023-05-21T16:05:39.638Z,101923.16
2023-05-21T16:08:07.310Z,101937.84
2023-05-21T16:10:34.950Z,101927.00
2023-05-21T16:13:04.046Z,101933.38
2023-05-21T16:15:32.382Z,101930.56
2023-05-21T16:18:00.173Z,101927.97
2023-05-21T16:20:27.905Z,101927.31
2023-05-21T16:22:55.520Z,101922.00
2023-05-21T16:25:23.193Z,101925.59
2023-05-21T16:27:50.878Z,101920.47
2023-05-21T16:30:19.917Z,101917.31
2023-05-21T16:32:47.546Z,101916.47
2023-05-21T16:35:15.241Z,101913.88
2023-05-21T16:37:42.872Z,101915.19
2023-05-21T16:40:11.630Z,101920.59
2023-05-21T16:42:39.758Z,101914.97
2023-05-21T16:45:08.360Z,101917.69
2023-05-21T16:47:37.410Z,101901.16
2023-05-21T16:50:05.620Z,101909.66
2023-05-21T16:52:33.594Z,101920.03
2023-05-21T16:55:01.240Z,101917.69
2023-05-21T16:57:28.996Z,101913.53
2023-05-21T16:59:56.675Z,101912.38
2023-05-21T17:02:24.845Z,101905.88
2023-05-21T17:04:53.897Z,101904.69
2023-05-21T17:07:21.553Z,101908.81
2023-05-21T17:09:49.213Z,101909.75
2023-05-21T17:12:16.922Z,101901.16
2023-05-21T17:14:44.642Z,101906.47
2023-05-21T17:17:12.236Z,101912.56
2023-05-21T17:19:39.838Z,101908.06
2023-05-21T17:22:08.805Z,101896.88
2023-05-21T17:24:36.403Z,101906.78
2023-05-21T17:27:04.117Z,101904.69
2023-05-21T17:29:31.888Z,101903.03
2023-05-21T17:32:00.111Z,101905.84
2023-05-21T17:34:29.451Z,101913.13
2023-05-21T17:36:58.105Z,101913.84
2023-05-21T17:39:27.288Z,101907.44
2023-05-21T17:41:56.948Z,101913.19
2023-05-21T17:44:24.641Z,101909.75
2023-05-21T17:46:52.835Z,101915.75
2023-05-21T17:49:20.621Z,101914.81
2023-05-21T17:51:48.717Z,101912.31
2023-05-21T17:54:16.354Z,101918.31
2023-05-21T17:56:46.563Z,101918.66
2023-05-21T17:59:15.845Z,101916.22
2023-05-21T18:01:43.513Z,101915.72
2023-05-21T18:04:12.324Z,101921.47
2023-05-21T18:06:40.469Z,101909.44
2023-05-21T18:09:10.363Z,101915.00
2023-05-21T18:11:38.207Z,101905.69
2023-05-21T18:14:07.230Z,101911.00
2023-05-21T18:16:34.905Z,101907.28
2023-05-21T18:19:05.669Z,101915.34
2023-05-21T18:21:34.566Z,101910.47
2023-05-21T18:24:02.456Z,101914.22
2023-05-21T18:26:30.708Z,101910.78
2023-05-21T18:28:58.308Z,101923.19
2023-05-21T18:31:27.526Z,101928.03
2023-05-21T18:33:55.386Z,101919.78
2023-05-21T18:36:23.904Z,101911.03
2023-05-21T18:38:52.239Z,101911.53
2023-05-21T18:41:20.010Z,101911.03
2023-05-21T18:43:47.688Z,101918.75
2023-05-21T18:46:15.373Z,101920.44
2023-05-21T18:48:44.354Z,101913.00
2023-05-21T18:51:11.999Z,101908.03
2023-05-21T18:53:40.334Z,101916.00
2023-05-21T18:56:10.150Z,101910.19
2023-05-21T18:58:38.347Z,101917.13
2023-05-21T19:01:07.671Z,101905.34
2023-05-21T19:03:35.432Z,101912.41
2023-05-21T19:06:04.689Z,101911.78
2023-05-21T19:08:32.259Z,101912.47
2023-05-21T19:11:00.297Z,101909.78
2023-05-21T19:13:27.925Z,101913.53
2023-05-21T19:15:57.339Z,101909.41
2023-05-21T19:18:30.075Z,101914.00
2023-05-21T19:20:57.780Z,101914.41
2023-05-21T19:23:26.739Z,101907.78
2023-05-21T19:25:54.328Z,101909.25
2023-05-21T19:28:22.142Z,101913.03
2023-05-21T19:30:49.925Z,101912.84
2023-05-21T19:33:17.567Z,101913.06
2023-05-21T19:35:45.323Z,101921.38
2023-05-21T19:38:13.314Z,101921.13
2023-05-21T19:40:42.322Z,101922.63
2023-05-21T19:43:10.002Z,101911.44
2023-05-21T19:45:37.668Z,101918.09
2023-05-21T19:48:05.955Z,101921.19
2023-05-21T19:50:33.722Z,101917.47
2023-05-21T19:53:01.347Z,101918.91
2023-05-21T19:55:31.270Z,101931.19
2023-05-21T19:58:00.205Z,101927.84
2023-05-21T20:00:28.628Z,101938.84
2023-05-21T20:02:56.762Z,101929.09
2023-05-21T20:05:24.658Z,101933.03
2023-05-21T20:07:52.268Z,101932.19
2023-05-21T20:10:19.878Z,101922.06
2023-05-21T20:12:47.609Z,101938.63
2023-05-21T20:15:18.171Z,101932.81
2023-05-21T20:17:46.182Z,101928.84
2023-05-21T20:20:13.986Z,101934.22
2023-05-21T20:22:41.698Z,101937.97
2023-05-21T20:25:10.422Z,101927.00
2023-05-21T20:27:39.502Z,101930.69
2023-05-21T20:30:09.209Z,101933.63
2023-05-21T20:32:38.258Z,101939.81
2023-05-21T20:35:08.965Z,101932.34
2023-05-21T20:37:36.808Z,101929.06
2023-05-21T20:40:07.049Z,101935.66
2023-05-21T20:42:35.244Z,101930.47
2023-05-21T20:45:03.825Z,101935.44
2023-05-21T20:47:31.496Z,101936.91
2023-05-21T20:50:02.941Z,101935.41
2023-05-21T20:52:30.744Z,101930.25
2023-05-21T20:54:59.628Z,101936.63
2023-05-21T20:57:28.136Z,101944.09
2023-05-21T20:59:56.195Z,101935.59
2023-05-21T21:02:24.421Z,101939.97
2023-05-21T21:04:53.808Z,101940.75
2023-05-21T21:07:23.383Z,101949.84
2023-05-21T21:09:51.145Z,101945.53
2023-05-21T21:12:25.242Z,101949.44
2023-05-21T21:14:54.173Z,101939.69
2023-05-21T21:17:22.462Z,101944.03
2023-05-21T21:19:50.314Z,101936.97
2023-05-21T21:22:18.574Z,101942.34
2023-05-21T21:24:48.097Z,101944.81
2023-05-21T21:27:15.888Z,101946.66
2023-05-21T21:29:44.136Z,101942.53
2023-05-21T21:32:11.782Z,101945.00
2023-05-21T21:34:39.499Z,101948.50
2023-05-21T21:37:07.171Z,101943.72
2023-05-21T21:39:34.961Z,101952.63
2023-05-21T21:42:04.084Z,101952.19
2023-05-21T21:44:31.667Z,101957.13
2023-05-21T21:46:59.311Z,101951.28
2023-05-21T21:49:26.970Z,101958.19
2023-05-21T21:51:57.906Z,101954.19
2023-05-21T21:54:25.695Z,101952.13
2023-05-21T21:56:53.281Z,101957.28
2023-05-21T21:59:22.511Z,101956.25
2023-05-21T22:01:50.272Z,101950.00
2023-05-21T22:04:17.946Z,101949.78
2023-05-21T22:06:46.705Z,101940.28
2023-05-21T22:09:14.460Z,101949.59
2023-05-21T22:11:42.240Z,101954.97
2023-05-21T22:14:11.562Z,101946.47
2023-05-21T22:16:41.436Z,101951.41
2023-05-21T22:19:10.168Z,101944.16
2023-05-21T22:21:38.136Z,101952.03
2023-05-21T22:24:06.165Z,101944.53
2023-05-21T22:26:33.791Z,101943.72
2023-05-21T22:29:01.567Z,101945.78
2023-05-21T22:31:29.311Z,101943.28
2023-05-21T22:33:58.321Z,101933.34
2023-05-21T22:36:26.191Z,101945.16
2023-05-21T22:38:53.806Z,101932.56
2023-05-21T22:41:22.798Z,101930.88
2023-05-21T22:43:50.430Z,101931.06
2023-05-21T22:46:18.114Z,101940.34
2023-05-21T22:48:46.092Z,101937.03
2023-05-21T22:51:15.337Z,101932.91
2023-05-21T22:53:43.320Z,101943.03
2023-05-21T22:56:11.311Z,101930.84
2023-05-21T22:58:38.951Z,101935.59
2023-05-21T23:01:06.719Z,101925.66
2023-05-21T23:03:34.302Z,101933.72
2023-05-21T23:06:02.017Z,101929.81
2023-05-21T23:08:31.074Z,101927.13
2023-05-21T23:10:58.675Z,101929.19
2023-05-21T23:13:26.533Z,101930.00
2023-05-21T23:15:54.189Z,101924.44
2023-05-21T23:18:21.825Z,101921.75
2023-05-21T23:20:49.484Z,101922.59
2023-05-21T23:23:17.307Z,101923.00
2023-05-21T23:25:46.576Z,101923.38
2023-05-21T23:28:14.219Z,101916.97
2023-05-21T23:30:41.931Z,101909.13
2023-05-21T23:33:09.832Z,101912.81
2023-05-21T23:35:37.634Z,101913.03
2023-05-21T23:38:05.416Z,101900.63
2023-05-21T23:40:33.096Z,101906.59
2023-05-21T23:43:02.461Z,101898.94
2023-05-21T23:45:30.190Z,101907.00
2023-05-21T23:47:57.878Z,101904.31
2023-05-21T23:50:25.868Z,101906.81
2023-05-21T23:52:53.656Z,101895.88
2023-05-21T23:55:21.465Z,101901.84
2023-05-21T23:57:49.101Z,101890.88
